Time;durP1;ratioP1;P1;durP2;ratioP2;P2;SDS_P1;SDS_P2;PMS_P1;PMS_P2;Temp;Humidity;BMP_temperature;BMP_pressure;BME280_temperature;BME280_humidity;BME280_pressure;Samples;Min_cycle;Max_cycle;Signal;HPM_P1;HPM_P2
2021/04/13 00:02:27;;;;;;;10.07;6.38;;;-0.90;99.90;;;;;;4974765;28;20069;-74
2021/04/13 00:04:59;;;;;;;10.70;6.03;;;-1.10;99.90;;;;;;4989395;28;20038;-75
2021/04/13 00:07:30;;;;;;;15.35;8.25;;;-1.20;99.90;;;;;;4975952;28;20053;-75
2021/04/13 00:10:05;;;;;;;11.05;7.00;;;-1.20;99.90;;;;;;4991076;28;20376;-75
2021/04/13 00:12:32;;;;;;;11.45;6.00;;;-1.20;99.90;;;;;;4975409;28;20027;-74
2021/04/13 00:15:13;;;;;;;9.88;6.30;;;-1.30;99.90;;;;;;4990794;28;20046;-75
2021/04/13 00:17:41;;;;;;;11.33;7.37;;;-1.20;99.90;;;;;;4959074;28;20049;-74
2021/04/13 00:20:41;;;;;;;12.63;7.45;;;-1.20;99.90;;;;;;4973546;28;20500;-75
2021/04/13 00:23:08;;;;;;;14.20;9.05;;;-1.30;99.90;;;;;;4986816;28;20408;-75
2021/04/13 00:25:50;;;;;;;13.02;8.52;;;-1.30;99.90;;;;;;4974935;28;20396;-75
2021/04/13 00:28:22;;;;;;;12.27;7.75;;;-1.40;99.90;;;;;;4974698;28;20385;-74
2021/04/13 00:30:55;;;;;;;13.05;8.00;;;-1.60;99.90;;;;;;4974790;28;20033;-74
2021/04/13 00:33:42;;;;;;;14.77;9.27;;;-1.60;99.90;;;;;;4974856;28;20504;-74
2021/04/13 00:36:12;;;;;;;16.58;9.70;;;-1.60;99.90;;;;;;4974307;28;20038;-74
2021/04/13 00:38:50;;;;;;;15.82;9.82;;;-1.50;99.90;;;;;;4957408;28;20035;-74
2021/04/13 00:41:30;;;;;;;13.70;8.85;;;-1.50;99.90;;;;;;4973450;28;20583;-74
2021/04/13 00:44:07;;;;;;;14.25;8.45;;;-1.50;99.90;;;;;;4974283;28;20042;-76
2021/04/13 00:47:06;;;;;;;12.80;8.23;;;-1.50;99.90;;;;;;4982086;28;20030;-74
2021/04/13 00:49:36;;;;;;;15.30;9.57;;;-1.40;99.90;;;;;;4964318;28;20065;-74
2021/04/13 00:52:07;;;;;;;16.40;8.80;;;-1.40;99.90;;;;;;4987834;28;20048;-74
2021/04/13 00:54:45;;;;;;;15.68;10.10;;;-1.40;99.90;;;;;;4975890;28;20057;-74
2021/04/13 00:57:20;;;;;;;16.83;8.70;;;-1.40;99.90;;;;;;4961483;28;20045;-74
2021/04/13 00:59:49;;;;;;;13.32;9.00;;;-1.50;99.90;;;;;;4977345;28;20026;-74
2021/04/13 01:02:19;;;;;;;16.27;9.32;;;-1.50;99.90;;;;;;4980135;28;20038;-74
2021/04/13 01:04:52;;;;;;;15.20;9.68;;;-1.50;99.90;;;;;;4966888;28;20495;-75
2021/04/13 01:07:27;;;;;;;14.00;8.60;;;-1.60;99.90;;;;;;4973400;28;20050;-74
2021/04/13 01:10:04;;;;;;;13.43;9.10;;;-1.60;99.90;;;;;;4973763;28;20047;-74
2021/04/13 01:12:33;;;;;;;15.82;9.27;;;-1.60;99.90;;;;;;4974215;28;20353;-75
2021/04/13 01:15:01;;;;;;;13.65;8.43;;;-1.60;99.90;;;;;;4973659;28;20039;-74
2021/04/13 01:17:28;;;;;;;16.08;9.82;;;-1.60;99.90;;;;;;4975212;28;20045;-74
2021/04/13 01:20:17;;;;;;;18.20;10.05;;;-1.60;99.90;;;;;;4983659;28;20399;-75
2021/04/13 01:25:26;;;;;;;45.08;19.52;;;-1.60;99.90;;;;;;4974934;28;20043;-74
2021/04/13 01:27:58;;;;;;;27.73;14.20;;;-1.50;99.90;;;;;;4975575;28;20050;-74
2021/04/13 01:30:39;;;;;;;20.83;13.05;;;-1.50;99.90;;;;;;4975092;28;20049;-73
2021/04/13 01:33:12;;;;;;;18.08;11.65;;;-1.60;99.90;;;;;;4982191;28;20038;-74
2021/04/13 01:35:43;;;;;;;19.55;11.30;;;-1.60;99.90;;;;;;4974644;28;20023;-75
2021/04/13 01:38:24;;;;;;;18.20;11.98;;;-1.60;99.90;;;;;;4982456;28;20047;-74
2021/04/13 01:41:32;;;;;;;18.25;12.40;;;-1.70;99.90;;;;;;4973042;28;20094;-74
2021/04/13 01:43:49;;;;;;;19.80;11.38;;;-1.60;99.90;;;;;;4970886;28;20043;-74
2021/04/13 01:46:16;;;;;;;19.77;11.85;;;-1.60;99.90;;;;;;4973005;28;20026;-75
2021/04/13 01:48:43;;;;;;;17.23;11.18;;;-1.70;99.90;;;;;;4973294;28;20094;-75
2021/04/13 01:51:11;;;;;;;18.75;10.80;;;-1.80;99.90;;;;;;4955559;28;20047;-74
2021/04/13 01:53:44;;;;;;;19.13;10.95;;;-1.80;99.90;;;;;;4973298;28;20030;-74
2021/04/13 01:56:25;;;;;;;17.95;11.30;;;-1.90;99.90;;;;;;4980944;28;20813;-73
2021/04/13 01:58:56;;;;;;;15.85;10.55;;;-1.90;99.90;;;;;;4974248;28;20045;-74
2021/04/13 02:01:30;;;;;;;14.82;10.00;;;-2.00;99.90;;;;;;4990126;28;20356;-74
2021/04/13 02:04:09;;;;;;;20.33;11.52;;;-2.00;99.90;;;;;;4973113;28;20372;-75
2021/04/13 02:06:45;;;;;;;18.48;11.13;;;-1.80;99.90;;;;;;4973358;28;20476;-74
2021/04/13 02:09:38;;;;;;;15.50;10.45;;;-1.70;99.90;;;;;;4976958;28;20038;-74
2021/04/13 02:12:22;;;;;;;17.70;12.23;;;-1.80;99.90;;;;;;4976044;28;20050;-74
2021/04/13 02:15:00;;;;;;;18.63;10.88;;;-1.80;99.90;;;;;;4972940;28;20038;-74
2021/04/13 02:17:33;;;;;;;20.05;11.52;;;-1.80;99.90;;;;;;4973348;28;20038;-74
2021/04/13 02:20:00;;;;;;;17.35;11.57;;;-1.80;99.90;;;;;;4973796;28;20057;-74
2021/04/13 02:22:27;;;;;;;19.88;12.07;;;-1.80;99.90;;;;;;4982575;28;20049;-74
2021/04/13 02:24:59;;;;;;;16.73;10.85;;;-1.80;99.90;;;;;;4985273;28;20035;-74
2021/04/13 02:27:27;;;;;;;;;;;-1.90;99.90;;;;;;4973680;28;20031;-73
2021/04/13 02:30:04;;;;;;;21.70;11.77;;;-1.90;99.90;;;;;;4973358;28;19910;-74
2021/04/13 02:32:33;;;;;;;19.40;11.93;;;-1.90;99.90;;;;;;4983945;28;20039;-74
2021/04/13 02:35:07;;;;;;;22.33;11.98;;;-1.80;99.90;;;;;;4973141;28;20408;-74
2021/04/13 02:37:36;;;;;;;19.27;12.27;;;-1.80;99.90;;;;;;4972326;28;20424;-74
2021/04/13 02:40:38;;;;;;;20.05;12.15;;;-1.80;99.90;;;;;;4972941;28;20035;-73
2021/04/13 02:43:22;;;;;;;18.00;11.77;;;-1.90;99.90;;;;;;4980079;28;20045;-73
2021/04/13 02:45:53;;;;;;;21.70;12.40;;;-1.90;99.90;;;;;;4973417;28;20035;-73
2021/04/13 02:48:31;;;;;;;11.55;8.15;;;-1.90;99.90;;;;;;4972497;28;20062;-73
2021/04/13 02:51:03;;;;;;;18.92;11.85;;;-1.90;99.90;;;;;;4972969;28;20035;-76
2021/04/13 02:53:41;;;;;;;18.92;11.70;;;-2.00;99.90;;;;;;4984124;28;20043;-74
2021/04/13 02:56:11;;;;;;;20.90;11.90;;;-2.00;99.90;;;;;;4972600;28;20030;-74
2021/04/13 02:59:11;;;;;;;21.88;12.15;;;-2.00;99.90;;;;;;4975160;28;20046;-74
2021/04/13 03:01:40;;;;;;;18.02;11.30;;;-1.90;99.90;;;;;;4974516;28;20034;-74
2021/04/13 03:04:09;;;;;;;23.13;12.07;;;-1.90;99.90;;;;;;4972198;28;20051;-74
2021/04/13 03:06:43;;;;;;;21.50;12.32;;;-1.90;99.90;;;;;;4982220;28;20042;-74
2021/04/13 03:09:12;;;;;;;20.67;12.10;;;-2.00;99.90;;;;;;4984842;28;20037;-73
2021/04/13 03:11:46;;;;;;;21.60;13.50;;;-2.10;99.90;;;;;;4976261;28;20038;-74
2021/04/13 03:14:15;;;;;;;24.52;12.90;;;-2.10;99.90;;;;;;4958714;28;20392;-75
2021/04/13 03:16:45;;;;;;;22.52;14.32;;;-2.10;99.90;;;;;;4974485;28;20050;-75
2021/04/13 03:19:14;;;;;;;22.70;14.00;;;-2.10;99.90;;;;;;4959164;28;20046;-73
2021/04/13 03:21:45;;;;;;;24.30;14.95;;;-2.00;99.90;;;;;;4975905;28;20031;-74
2021/04/13 03:24:13;;;;;;;;;;;-2.00;99.90;;;;;;4975859;28;20496;-74
2021/04/13 03:26:49;;;;;;;26.60;15.65;;;-2.00;99.90;;;;;;4976590;28;20363;-73
2021/04/13 03:29:20;;;;;;;28.67;17.27;;;-2.00;99.90;;;;;;4975661;28;20063;-73
2021/04/13 03:31:48;;;;;;;40.40;20.38;;;-1.80;99.90;;;;;;4973467;28;20050;-74
2021/04/13 03:34:17;;;;;;;96.72;49.10;;;-1.90;99.90;;;;;;4985543;28;20039;-75
2021/04/13 03:36:46;;;;;;;56.53;32.50;;;-1.80;99.90;;;;;;4976009;28;20043;-74
2021/04/13 03:39:19;;;;;;;55.65;30.75;;;-1.70;99.90;;;;;;4975727;28;20045;-73
2021/04/13 03:41:48;;;;;;;56.70;27.67;;;-1.70;99.90;;;;;;4973248;28;20465;-74
2021/04/13 03:44:19;;;;;;;44.47;23.58;;;-1.80;99.90;;;;;;4957936;28;20053;-74
2021/04/13 03:46:47;;;;;;;40.35;19.45;;;-1.90;99.90;;;;;;4975711;28;20026;-74
2021/04/13 03:49:30;;;;;;;33.15;18.77;;;-1.90;99.90;;;;;;4994876;28;20043;-73
2021/04/13 03:52:15;;;;;;;27.55;16.02;;;-1.90;99.90;;;;;;4993290;28;20039;-74
2021/04/13 03:54:42;;;;;;;24.92;15.30;;;-1.90;99.90;;;;;;4959493;28;20043;-73
2021/04/13 03:57:09;;;;;;;28.52;15.43;;;-1.90;99.90;;;;;;4975608;28;20033;-74
2021/04/13 03:59:43;;;;;;;22.25;14.65;;;-2.00;99.90;;;;;;4994289;28;20030;-74
2021/04/13 04:02:10;;;;;;;24.13;15.13;;;-2.00;99.90;;;;;;4975636;28;20046;-74
2021/04/13 04:04:41;;;;;;;21.10;12.93;;;-2.00;99.90;;;;;;4975416;28;20042;-73
2021/04/13 04:07:34;;;;;;;23.25;13.88;;;-2.10;99.90;;;;;;4967507;28;20480;-74
2021/04/13 04:10:00;;;;;;;29.33;15.80;;;-2.10;99.90;;;;;;4979218;28;20026;-76
2021/04/13 04:12:31;;;;;;;25.58;15.98;;;-1.90;99.90;;;;;;4978342;28;20034;-73
2021/04/13 04:15:05;;;;;;;23.13;15.23;;;-2.10;99.90;;;;;;4977304;28;20042;-75
2021/04/13 04:17:34;;;;;;;23.40;14.88;;;-2.30;99.90;;;;;;4984200;28;20038;-74
2021/04/13 04:20:07;;;;;;;28.27;15.88;;;-2.30;99.90;;;;;;4969692;28;20043;-76
2021/04/13 04:22:48;;;;;;;25.90;15.27;;;-2.30;99.90;;;;;;4976121;28;20054;-75
2021/04/13 04:25:24;;;;;;;24.08;15.23;;;-2.30;99.90;;;;;;4957864;28;20043;-75
2021/04/13 04:27:55;;;;;;;26.52;15.55;;;-2.20;99.90;;;;;;4965828;28;20038;-74
2021/04/13 04:30:27;;;;;;;29.50;16.20;;;-2.30;99.90;;;;;;4974603;28;20379;-74
2021/04/13 04:32:55;;;;;;;25.75;16.05;;;-2.30;99.90;;;;;;4971370;28;20045;-74
2021/04/13 04:35:41;;;;;;;27.40;15.23;;;-2.40;99.90;;;;;;4974421;28;20043;-74
2021/04/13 04:38:09;;;;;;;26.55;14.23;;;-2.50;99.90;;;;;;4956944;28;20038;-74
2021/04/13 04:40:57;;;;;;;23.05;13.25;;;-2.50;99.90;;;;;;4974700;28;20038;-73
2021/04/13 04:43:44;;;;;;;23.70;13.23;;;-2.50;99.90;;;;;;4974614;28;20046;-74
2021/04/13 04:46:29;;;;;;;23.27;14.45;;;-2.50;99.90;;;;;;4982204;28;20027;-74
2021/04/13 04:49:10;;;;;;;26.00;14.80;;;-2.50;99.90;;;;;;4975496;28;20030;-74
2021/04/13 04:51:37;;;;;;;27.77;17.20;;;-2.40;99.90;;;;;;4958399;28;20043;-74
2021/04/13 04:54:05;;;;;;;28.90;15.70;;;-2.30;99.90;;;;;;4979565;28;20050;-74
2021/04/13 04:56:31;;;;;;;30.90;16.05;;;-2.30;99.90;;;;;;4985790;28;20037;-75
2021/04/13 04:58:57;;;;;;;31.45;16.73;;;-2.40;99.90;;;;;;4974299;28;20022;-74
2021/04/13 05:01:25;;;;;;;28.23;16.05;;;-2.50;99.90;;;;;;4982216;28;20031;-74
2021/04/13 05:03:51;;;;;;;32.22;16.45;;;-2.50;99.90;;;;;;4976073;28;20401;-73
2021/04/13 05:06:19;;;;;;;28.67;14.73;;;-2.60;99.90;;;;;;4971031;28;20106;-73
2021/04/13 05:08:46;;;;;;;27.23;14.90;;;-2.60;99.90;;;;;;4974342;28;20034;-73
2021/04/13 05:11:14;;;;;;;23.95;14.98;;;-2.50;99.90;;;;;;4977519;28;20034;-74
2021/04/13 05:13:40;;;;;;;25.08;14.30;;;-2.50;99.90;;;;;;4988571;28;20034;-74
2021/04/13 05:16:07;;;;;;;25.80;15.32;;;-2.40;99.90;;;;;;4981651;28;20050;-74
2021/04/13 05:18:33;;;;;;;28.13;16.25;;;-2.30;99.90;;;;;;4981417;28;20042;-75
2021/04/13 05:20:59;;;;;;;26.30;15.07;;;-2.10;99.90;;;;;;4980801;28;20050;-75
2021/04/13 05:23:26;;;;;;;21.45;13.77;;;-1.40;99.90;;;;;;4956879;28;20045;-74
2021/04/13 05:25:52;;;;;;;19.13;11.80;;;-0.60;99.90;;;;;;4990851;28;20069;-73
2021/04/13 05:28:19;;;;;;;15.85;10.95;;;0.30;99.90;;;;;;4972250;28;20031;-74
2021/04/13 05:30:48;;;;;;;13.50;8.95;;;1.00;99.90;;;;;;4973650;28;20039;-73
2021/04/13 05:33:15;;;;;;;11.75;8.73;;;1.60;99.90;;;;;;4972083;28;20038;-74
2021/04/13 05:35:41;;;;;;;13.77;8.68;;;2.20;99.90;;;;;;4972930;28;20046;-74
2021/04/13 05:38:14;;;;;;;11.25;8.70;;;2.30;98.30;;;;;;4972078;28;20043;-74
2021/04/13 05:40:41;;;;;;;11.40;8.32;;;2.80;98.00;;;;;;4972964;28;20042;-75
2021/04/13 05:43:11;;;;;;;12.75;8.88;;;3.10;93.90;;;;;;4972260;28;20039;-74
2021/04/13 05:45:39;;;;;;;11.75;8.23;;;3.50;92.10;;;;;;4973766;28;20477;-74
2021/04/13 05:48:06;;;;;;;10.77;8.15;;;4.10;90.60;;;;;;4970125;28;20050;-73
2021/04/13 05:50:35;;;;;;;11.00;8.80;;;4.50;87.60;;;;;;4974379;28;20051;-72
2021/04/13 05:53:01;;;;;;;13.82;8.55;;;4.70;85.80;;;;;;4966145;28;20038;-74
2021/04/13 05:55:30;;;;;;;12.90;10.15;;;4.60;86.10;;;;;;4972381;28;20046;-72
2021/04/13 05:58:14;;;;;;;11.02;9.32;;;4.30;87.30;;;;;;4972261;28;20037;-73
2021/04/13 06:00:41;;;;;;;13.52;9.90;;;4.10;90.10;;;;;;4957912;28;20046;-74
2021/04/13 06:03:11;;;;;;;14.48;10.75;;;3.90;91.70;;;;;;4978871;28;20031;-73
2021/04/13 06:05:38;;;;;;;12.57;10.60;;;3.80;92.70;;;;;;4979153;28;20034;-73
2021/04/13 06:08:05;;;;;;;13.27;10.13;;;4.00;93.20;;;;;;4974162;28;20050;-73
2021/04/13 06:10:31;;;;;;;13.60;10.48;;;4.20;92.80;;;;;;4982365;28;20023;-73
2021/04/13 06:13:01;;;;;;;14.55;10.55;;;4.30;92.20;;;;;;4964179;28;20041;-73
2021/04/13 06:15:29;;;;;;;17.80;13.23;;;4.30;92.60;;;;;;4973431;28;20043;-77
2021/04/13 06:17:56;;;;;;;15.13;11.73;;;4.90;92.20;;;;;;4954422;28;20047;-77
2021/04/13 06:20:30;;;;;;;14.48;12.27;;;5.00;90.70;;;;;;4981811;28;20038;-77
2021/04/13 06:22:58;;;;;;;14.63;12.02;;;4.80;90.40;;;;;;4961371;28;20419;-77
2021/04/13 06:25:30;;;;;;;15.38;11.48;;;4.60;91.40;;;;;;4933674;28;614175;-77
2021/04/13 06:27:57;;;;;;;16.75;12.57;;;4.30;91.80;;;;;;4973373;28;20038;-77
2021/04/13 06:30:25;;;;;;;14.80;12.13;;;4.30;91.80;;;;;;4972841;28;20030;-77
2021/04/13 06:32:53;;;;;;;16.92;13.48;;;4.60;91.30;;;;;;4972618;28;20054;-76
2021/04/13 06:35:20;;;;;;;17.08;12.43;;;4.50;91.40;;;;;;4972845;28;20638;-77
2021/04/13 06:37:48;;;;;;;17.13;13.40;;;4.90;91.20;;;;;;4973085;28;20399;-77
2021/04/13 06:40:41;;;;;;;17.92;12.57;;;4.90;91.30;;;;;;4975207;28;20053;-77
2021/04/13 06:43:28;;;;;;;17.17;12.93;;;5.40;90.20;;;;;;4976548;28;20094;-77
2021/04/13 06:46:00;;;;;;;14.68;11.90;;;5.20;89.60;;;;;;4976586;28;20035;-77
2021/04/13 06:49:00;;;;;;;15.27;12.63;;;5.30;90.40;;;;;;4976771;28;20053;-77
2021/04/13 06:51:54;;;;;;;19.88;14.07;;;5.40;89.40;;;;;;4989559;28;20062;-77
2021/04/13 06:55:02;;;;;;;14.77;12.80;;;5.80;88.90;;;;;;4982012;28;20046;-77
2021/04/13 06:57:36;;;;;;;15.45;12.88;;;6.00;87.30;;;;;;4965332;28;20505;-77
2021/04/13 07:00:21;;;;;;;15.80;12.82;;;5.90;86.40;;;;;;4961641;28;20039;-77
2021/04/13 07:02:53;;;;;;;15.95;12.95;;;5.70;86.70;;;;;;4982555;28;20039;-78
2021/04/13 07:05:22;;;;;;;17.73;14.18;;;5.80;85.40;;;;;;4976089;28;20050;-78
2021/04/13 07:07:57;;;;;;;16.85;14.00;;;5.30;85.70;;;;;;4976584;28;20031;-77
2021/04/13 07:10:39;;;;;;;17.48;13.82;;;5.80;85.90;;;;;;4975561;28;20042;-77
2021/04/13 07:13:18;;;;;;;17.80;14.50;;;5.80;82.70;;;;;;4976309;28;20027;-77
2021/04/13 07:15:48;;;;;;;17.95;14.00;;;6.20;82.70;;;;;;4976326;28;20054;-77
2021/04/13 07:18:44;;;;;;;17.35;14.20;;;6.50;80.70;;;;;;4975710;28;20042;-78
2021/04/13 07:21:36;;;;;;;20.27;14.20;;;5.70;83.20;;;;;;4989232;28;20042;-77
2021/04/13 07:24:18;;;;;;;18.10;15.20;;;6.00;82.70;;;;;;4967296;28;20042;-77
2021/04/13 07:26:56;;;;;;;17.23;13.25;;;6.60;80.00;;;;;;4976414;28;20046;-78
2021/04/13 07:29:56;;;;;;;17.30;13.98;;;7.00;77.50;;;;;;4958643;28;20043;-77
2021/04/13 07:32:24;;;;;;;17.05;13.95;;;6.30;80.80;;;;;;4973845;28;20046;-77
2021/04/13 07:34:58;;;;;;;17.25;13.93;;;6.80;76.70;;;;;;4982033;28;20061;-76
2021/04/13 07:37:40;;;;;;;17.98;13.88;;;7.00;74.90;;;;;;4992382;28;20030;-75
2021/04/13 07:40:31;;;;;;;16.45;14.07;;;7.20;73.70;;;;;;4975588;28;20476;-76
2021/04/13 07:43:10;;;;;;;14.50;13.00;;;8.10;70.50;;;;;;4974602;28;20046;-76
2021/04/13 07:46:12;;;;;;;16.35;14.10;;;8.40;68.80;;;;;;4976007;28;20067;-78
2021/04/13 07:49:00;;;;;;;16.67;14.32;;;7.90;68.70;;;;;;4976218;28;20389;-78
2021/04/13 07:51:41;;;;;;;19.98;13.55;;;7.40;70.30;;;;;;4982714;28;20042;-77
2021/04/13 07:54:38;;;;;;;18.00;12.98;;;6.90;71.90;;;;;;4958413;28;20533;-76
2021/04/13 07:57:59;;;;;;;17.13;14.07;;;7.30;72.50;;;;;;4977375;28;20045;-77
2021/04/13 08:00:26;;;;;;;;;;;7.50;69.90;;;;;;4905604;28;20043;-77
2021/04/13 08:03:05;;;;;;;15.40;12.38;;;8.20;68.40;;;;;;4975639;28;19910;-76
2021/04/13 08:05:44;;;;;;;15.32;12.38;;;7.80;67.60;;;;;;4975766;28;20046;-76
2021/04/13 08:08:27;;;;;;;15.27;11.38;;;7.30;67.90;;;;;;4974533;28;20047;-77
2021/04/13 08:11:08;;;;;;;16.05;11.77;;;8.00;66.20;;;;;;4974458;28;20051;-77
2021/04/13 08:13:35;;;;;;;14.90;13.30;;;8.30;65.70;;;;;;4972221;28;20043;-78
2021/04/13 08:16:01;;;;;;;15.35;12.18;;;7.50;65.80;;;;;;4985249;28;20495;-77
2021/04/13 08:18:39;;;;;;;20.08;12.55;;;7.30;67.40;;;;;;4982942;28;20030;-77
2021/04/13 08:21:23;;;;;;;15.57;13.38;;;7.40;66.80;;;;;;4976079;28;20027;-76
2021/04/13 08:23:52;;;;;;;16.95;13.38;;;7.90;64.30;;;;;;4984664;28;20055;-77
2021/04/13 08:26:31;;;;;;;12.93;11.07;;;8.20;64.10;;;;;;4974042;28;20054;-78
2021/04/13 08:29:16;;;;;;;14.75;11.30;;;7.70;63.90;;;;;;4975600;28;20037;-77
2021/04/13 08:35:38;;;;;;;15.23;11.00;;;7.80;63.50;;;;;;4915167;29;20497;-78
2021/04/13 08:39:01;;;;;;;14.07;10.80;;;7.10;65.20;;;;;;4970863;28;20050;-76
2021/04/13 08:41:38;;;;;;;14.65;10.63;;;8.00;63.20;;;;;;4937766;28;20050;-76
2021/04/13 08:44:22;;;;;;;14.50;10.75;;;8.90;60.20;;;;;;4978213;28;20038;-77
2021/04/13 08:46:56;;;;;;;14.98;11.32;;;9.70;58.80;;;;;;4962457;28;20039;-77
2021/04/13 08:49:22;;;;;;;12.57;9.45;;;10.50;57.30;;;;;;4973592;28;20046;-77
2021/04/13 08:52:09;;;;;;;15.93;10.77;;;8.60;57.20;;;;;;4974712;28;20043;-77
2021/04/13 08:54:37;;;;;;;12.43;10.00;;;7.30;61.80;;;;;;4975156;28;20050;-77
2021/04/13 08:57:19;;;;;;;13.85;9.20;;;7.50;60.60;;;;;;4962741;28;20047;-78
2021/04/13 08:59:52;;;;;;;13.38;10.23;;;7.90;59.60;;;;;;4974686;28;20042;-78
2021/04/13 09:02:35;;;;;;;12.02;9.10;;;8.00;59.10;;;;;;4983037;28;20030;-78
2021/04/13 09:05:07;;;;;;;9.35;7.95;;;8.20;58.30;;;;;;4974638;28;20476;-77
2021/04/13 09:07:59;;;;;;;11.93;7.53;;;8.50;57.10;;;;;;4973949;28;20041;-76
2021/04/13 09:10:37;;;;;;;9.82;7.70;;;7.90;55.30;;;;;;4973974;28;20038;-75
2021/04/13 09:13:11;;;;;;;10.57;6.28;;;7.90;57.60;;;;;;4985919;28;20053;-77
2021/04/13 09:16:05;;;;;;;11.02;8.20;;;8.60;54.90;;;;;;4959747;28;20062;-77
2021/04/13 09:19:13;;;;;;;10.65;7.65;;;9.50;54.00;;;;;;4976778;28;20050;-78
2021/04/13 09:21:44;;;;;;;10.75;7.93;;;9.50;54.30;;;;;;4889649;29;20131;-79
2021/04/13 09:24:37;;;;;;;8.30;6.90;;;10.30;51.80;;;;;;4956924;28;20400;-77
2021/04/13 09:27:24;;;;;;;8.77;7.38;;;10.80;49.30;;;;;;4973577;28;20080;-77
2021/04/13 09:29:54;;;;;;;12.68;8.90;;;11.00;49.40;;;;;;4974163;28;20042;-76
2021/04/13 09:32:23;;;;;;;10.70;8.73;;;9.50;52.10;;;;;;4973779;28;20038;-77
2021/04/13 09:35:18;;;;;;;12.13;9.80;;;8.50;53.90;;;;;;4973843;28;20059;-76
2021/04/13 09:38:27;;;;;;;14.02;9.73;;;9.00;54.20;;;;;;4974030;28;20030;-76
2021/04/13 09:41:09;;;;;;;12.25;8.70;;;9.10;52.40;;;;;;4956746;28;20054;-77
2021/04/13 09:44:03;;;;;;;9.95;8.38;;;8.10;53.70;;;;;;4974347;28;20070;-77
2021/04/13 09:46:57;;;;;;;11.10;7.93;;;7.40;54.60;;;;;;4964264;28;20047;-76
2021/04/13 09:49:48;;;;;;;11.65;9.00;;;8.40;53.30;;;;;;4973465;28;20054;-76
2021/04/13 09:52:32;;;;;;;8.85;7.85;;;9.90;51.30;;;;;;4973864;28;20468;-77
2021/04/13 09:55:19;;;;;;;13.13;8.30;;;8.60;51.00;;;;;;4973720;28;20046;-76
2021/04/13 09:58:08;;;;;;;9.00;7.10;;;8.00;51.30;;;;;;4973449;28;20026;-77
2021/04/13 10:00:37;;;;;;;8.13;6.60;;;7.60;50.90;;;;;;4980499;28;20045;-78
2021/04/13 10:03:22;;;;;;;6.40;5.68;;;7.40;51.00;;;;;;4977203;28;20094;-77
2021/04/13 10:05:49;;;;;;;11.15;7.35;;;8.50;49.40;;;;;;4965728;28;20047;-77
2021/04/13 10:08:19;;;;;;;9.52;7.28;;;9.20;48.70;;;;;;4981752;28;20038;-78
2021/04/13 10:11:08;;;;;;;10.00;6.70;;;9.20;48.40;;;;;;4985263;28;20377;-78
2021/04/13 10:13:52;;;;;;;11.13;6.55;;;8.50;49.30;;;;;;4973830;28;20030;-78
2021/04/13 10:16:38;;;;;;;8.45;5.90;;;8.60;49.10;;;;;;4971513;28;20054;-78
2021/04/13 10:19:48;;;;;;;7.95;5.55;;;8.30;48.40;;;;;;4979883;28;20061;-78
2021/04/13 10:22:20;;;;;;;8.20;6.15;;;8.00;49.70;;;;;;4972804;28;20035;-78
2021/04/13 10:25:41;;;;;;;7.85;5.95;;;7.80;50.00;;;;;;4973188;28;20061;-78
2021/04/13 10:28:44;;;;;;;9.38;5.63;;;8.10;50.10;;;;;;4898286;29;20032;-76
2021/04/13 10:31:33;;;;;;;8.30;5.22;;;8.60;50.60;;;;;;4972841;28;20059;-78
2021/04/13 10:34:08;;;;;;;7.68;5.20;;;9.00;48.00;;;;;;4973155;28;20050;-78
2021/04/13 10:36:58;;;;;;;8.30;4.38;;;8.80;47.70;;;;;;4973028;28;20042;-77
2021/04/13 10:39:41;;;;;;;2.90;1.98;;;8.90;46.30;;;;;;4973411;28;20488;-78
2021/04/13 10:42:41;;;;;;;5.95;3.67;;;9.10;45.60;;;;;;4987324;28;20043;-77
2021/04/13 10:45:37;;;;;;;7.50;3.50;;;8.40;45.90;;;;;;4986467;28;20047;-78
2021/04/13 10:48:42;;;;;;;7.55;3.95;;;8.60;46.30;;;;;;4975152;28;20023;-78
2021/04/13 10:51:27;;;;;;;9.27;5.70;;;8.20;47.80;;;;;;4973562;28;20050;-77
2021/04/13 10:54:12;;;;;;;6.45;3.20;;;8.80;46.50;;;;;;4991112;28;20058;-77
2021/04/13 10:57:14;;;;;;;5.38;3.25;;;9.00;46.00;;;;;;4973161;28;20523;-77
2021/04/13 11:00:37;;;;;;;4.80;3.45;;;8.90;45.50;;;;;;4968649;28;20144;-78
2021/04/13 11:03:40;;;;;;;6.82;3.95;;;9.00;45.80;;;;;;4892694;29;20047;-77
2021/04/13 11:06:28;;;;;;;5.80;3.30;;;8.80;46.50;;;;;;4888383;29;20479;-77
2021/04/13 11:08:57;;;;;;;6.28;3.47;;;8.50;46.60;;;;;;4972289;28;20054;-77
2021/04/13 11:11:53;;;;;;;6.20;4.53;;;9.00;47.30;;;;;;4972640;28;20376;-77
2021/04/13 11:14:37;;;;;;;5.90;3.33;;;9.00;48.40;;;;;;4971060;28;20047;-78
2021/04/13 11:17:12;;;;;;;6.68;3.30;;;9.20;46.90;;;;;;4972868;28;20047;-78
2021/04/13 11:20:10;;;;;;;5.15;2.80;;;8.70;48.00;;;;;;4973141;28;20045;-78
2021/04/13 11:23:08;;;;;;;6.85;3.47;;;8.30;47.80;;;;;;4972630;28;20103;-78
2021/04/13 11:26:12;;;;;;;4.70;3.28;;;8.10;48.90;;;;;;4949214;28;20064;-77
2021/04/13 11:28:50;;;;;;;4.85;2.90;;;8.40;47.90;;;;;;4970144;28;20046;-77
2021/04/13 11:32:02;;;;;;;4.93;3.00;;;8.50;49.20;;;;;;4974658;28;20034;-77
2021/04/13 11:34:38;;;;;;;6.53;2.58;;;8.40;48.10;;;;;;4972669;28;20062;-78
2021/04/13 11:37:27;;;;;;;6.25;2.40;;;8.20;50.50;;;;;;4987420;28;20043;-78
2021/04/13 11:40:14;;;;;;;4.18;2.53;;;8.10;50.80;;;;;;4976118;28;20034;-78
2021/04/13 11:42:42;;;;;;;3.85;3.10;;;8.50;50.00;;;;;;4977278;28;20037;-78
2021/04/13 11:45:46;;;;;;;4.05;2.50;;;8.90;48.50;;;;;;4993440;28;20037;-78
2021/04/13 11:48:30;;;;;;;3.67;1.80;;;9.10;48.90;;;;;;4974887;28;20042;-77
2021/04/13 11:51:05;;;;;;;3.28;2.25;;;9.40;46.80;;;;;;4974877;28;20501;-78
2021/04/13 11:53:44;;;;;;;3.92;1.65;;;9.40;47.50;;;;;;4974550;28;20070;-78
2021/04/13 11:56:22;;;;;;;3.35;2.05;;;9.70;46.10;;;;;;4974682;28;20062;-77
2021/04/13 11:59:17;;;;;;;3.38;1.70;;;9.40;45.90;;;;;;4974959;28;20111;-78
2021/04/13 12:02:18;;;;;;;2.78;1.40;;;9.50;46.20;;;;;;4978532;28;20026;-78
2021/04/13 12:04:49;;;;;;;;;;;8.80;45.20;;;;;;4929827;28;20042;-78
2021/04/13 12:07:50;;;;;;;4.65;1.80;;;8.70;45.60;;;;;;4975162;28;19917;-79
2021/04/13 12:10:31;;;;;;;2.30;1.27;;;8.60;45.00;;;;;;4974812;28;20047;-78
2021/04/13 12:13:05;;;;;;;5.18;1.70;;;9.10;45.70;;;;;;4975588;28;20048;-77
2021/04/13 12:15:34;;;;;;;4.03;1.50;;;9.40;46.60;;;;;;4990661;28;20049;-78
2021/04/13 12:18:22;;;;;;;4.07;2.00;;;9.30;46.80;;;;;;4975592;28;20532;-78
2021/04/13 12:20:48;;;;;;;5.68;2.25;;;9.30;47.20;;;;;;4981343;28;20386;-78
2021/04/13 12:23:14;;;;;;;4.18;1.70;;;9.30;48.00;;;;;;4978684;28;20038;-79
2021/04/13 12:25:50;;;;;;;4.20;1.83;;;9.10;46.80;;;;;;4975011;28;20062;-78
2021/04/13 12:28:29;;;;;;;8.18;2.58;;;8.70;46.70;;;;;;4974985;28;20031;-77
2021/04/13 12:31:04;;;;;;;6.25;2.03;;;8.80;47.40;;;;;;4975479;28;20390;-78
2021/04/13 12:33:31;;;;;;;5.45;2.33;;;8.80;48.20;;;;;;4974368;28;20400;-78
2021/04/13 12:36:08;;;;;;;4.32;1.98;;;9.20;48.50;;;;;;4975164;28;20480;-78
2021/04/13 12:38:50;;;;;;;3.88;2.42;;;9.30;46.40;;;;;;4976468;28;20031;-78
2021/04/13 12:41:25;;;;;;;3.10;1.95;;;9.70;46.30;;;;;;4974356;28;20031;-78
2021/04/13 12:44:00;;;;;;;3.40;1.98;;;10.10;44.90;;;;;;4986414;28;20045;-78
2021/04/13 12:46:33;;;;;;;5.40;1.83;;;9.70;44.90;;;;;;4981798;28;20055;-77
2021/04/13 12:49:11;;;;;;;4.00;1.95;;;9.30;45.10;;;;;;4982142;28;20034;-78
2021/04/13 12:51:51;;;;;;;3.20;2.10;;;9.30;46.00;;;;;;4977020;28;20062;-77
2021/04/13 12:54:27;;;;;;;5.40;2.88;;;9.90;46.50;;;;;;4971928;28;20054;-78
2021/04/13 12:57:13;;;;;;;4.82;2.65;;;9.90;47.20;;;;;;4973993;28;20496;-77
2021/04/13 12:59:40;;;;;;;5.07;2.80;;;9.30;47.00;;;;;;4975440;28;20065;-79
2021/04/13 13:02:26;;;;;;;6.32;2.28;;;9.10;47.70;;;;;;4972026;28;20507;-78
2021/04/13 13:04:53;;;;;;;4.28;3.15;;;8.90;48.90;;;;;;4973958;28;20046;-78
2021/04/13 13:07:26;;;;;;;3.75;2.00;;;9.00;48.90;;;;;;4983673;28;20035;-78
2021/04/13 13:09:53;;;;;;;4.35;1.95;;;8.80;47.70;;;;;;4991364;28;20041;-77
2021/04/13 13:12:32;;;;;;;4.78;1.60;;;8.70;47.40;;;;;;4971789;28;20472;-78
2021/04/13 13:15:04;;;;;;;3.20;1.75;;;8.70;47.50;;;;;;4974686;28;20362;-78
2021/04/13 13:17:39;;;;;;;2.65;1.80;;;8.70;47.10;;;;;;4973659;28;20039;-78
2021/04/13 13:20:09;;;;;;;2.63;1.33;;;8.90;47.50;;;;;;4974262;28;20057;-78
2021/04/13 13:22:35;;;;;;;5.75;1.83;;;9.20;46.60;;;;;;4974082;28;20037;-78
2021/04/13 13:25:16;;;;;;;3.75;1.85;;;9.50;47.00;;;;;;4973998;28;20034;-76
2021/04/13 13:27:42;;;;;;;2.53;1.67;;;10.00;45.70;;;;;;4973931;28;20039;-77
2021/04/13 13:30:13;;;;;;;4.03;1.75;;;9.70;46.30;;;;;;4974123;28;20043;-78
2021/04/13 13:32:41;;;;;;;3.25;1.60;;;9.60;46.40;;;;;;4974549;28;20357;-77
2021/04/13 13:35:10;;;;;;;2.45;1.38;;;9.30;46.40;;;;;;4977035;28;20046;-79
2021/04/13 13:37:40;;;;;;;10.25;6.80;;;9.20;45.20;;;;;;4991098;28;20046;-78
2021/04/13 13:40:30;;;;;;;3.47;1.23;;;8.90;44.50;;;;;;4973856;28;20031;-77
2021/04/13 13:42:58;;;;;;;2.58;1.30;;;9.00;44.70;;;;;;4966835;28;20484;-77